Time;durP1;ratioP1;P1;durP2;ratioP2;P2;SDS_P1;SDS_P2;PMS_P1;PMS_P2;Temp;Humidity;BMP_temperature;BMP_pressure;BME280_temperature;BME280_humidity;BME280_pressure;Samples;Min_cycle;Max_cycle;Signal;HPM_P1;HPM_P2
2021/05/29 00:00:12;;;;;;;10.85;9.93;;;11.80;72.30;;;;;;5190582;28;20034;-74
2021/05/29 00:02:44;;;;;;;10.55;9.55;;;11.90;72.30;;;;;;5190500;28;20065;-73
2021/05/29 00:05:17;;;;;;;10.40;9.50;;;11.90;71.70;;;;;;5186600;28;20065;-72
2021/05/29 00:07:49;;;;;;;10.77;9.77;;;11.90;71.80;;;;;;5192252;28;20071;-72
2021/05/29 00:10:21;;;;;;;10.90;10.00;;;11.80;71.70;;;;;;5190673;28;20124;-73
2021/05/29 00:12:53;;;;;;;11.10;10.07;;;11.80;71.70;;;;;;5190705;28;20495;-72
2021/05/29 00:15:25;;;;;;;10.93;10.02;;;11.80;71.90;;;;;;5189818;28;20100;-73
2021/05/29 00:17:57;;;;;;;10.98;10.00;;;11.70;72.40;;;;;;5190646;28;20041;-72
2021/05/29 00:20:29;;;;;;;10.98;10.07;;;11.70;72.20;;;;;;5190880;28;20046;-74
2021/05/29 00:23:01;;;;;;;10.70;9.70;;;11.70;71.80;;;;;;5190516;28;20808;-73
2021/05/29 00:25:34;;;;;;;11.30;10.20;;;11.70;72.30;;;;;;5191508;28;20128;-75
2021/05/29 00:28:07;;;;;;;11.38;10.38;;;11.70;72.00;;;;;;5180577;28;20049;-74
2021/05/29 00:30:39;;;;;;;10.73;9.82;;;11.70;73.00;;;;;;5191982;28;20034;-73
2021/05/29 00:33:12;;;;;;;11.07;10.07;;;11.60;72.10;;;;;;5193838;28;20054;-73
2021/05/29 00:35:44;;;;;;;11.27;10.10;;;11.70;72.20;;;;;;5176235;28;20403;-72
2021/05/29 00:38:16;;;;;;;11.35;10.35;;;11.60;72.50;;;;;;5191464;28;20042;-72
2021/05/29 00:40:48;;;;;;;11.27;10.27;;;11.50;72.90;;;;;;5187079;28;20129;-72
2021/05/29 00:43:20;;;;;;;12.00;10.85;;;11.50;72.90;;;;;;5193383;28;20567;-71
2021/05/29 00:45:52;;;;;;;11.80;10.60;;;11.50;74.20;;;;;;5180902;28;20061;-72
2021/05/29 00:48:24;;;;;;;11.65;10.63;;;11.50;73.60;;;;;;5191946;28;20122;-71
2021/05/29 00:50:59;;;;;;;11.57;10.45;;;11.40;73.70;;;;;;5172975;28;20041;-71
2021/05/29 00:53:33;;;;;;;11.20;10.30;;;11.40;73.50;;;;;;5192358;28;20049;-74
2021/05/29 00:56:07;;;;;;;11.32;10.32;;;11.40;73.40;;;;;;5186850;28;20076;-72
2021/05/29 00:58:41;;;;;;;10.93;9.90;;;11.30;73.60;;;;;;5190097;28;20512;-72
2021/05/29 01:01:13;;;;;;;11.80;10.65;;;11.30;73.60;;;;;;5188343;28;20061;-72
2021/05/29 01:03:45;;;;;;;11.65;10.55;;;11.30;73.90;;;;;;5190359;28;20050;-71
2021/05/29 01:06:20;;;;;;;11.32;10.43;;;11.20;73.90;;;;;;5189644;28;20115;-74
2021/05/29 01:08:52;;;;;;;12.35;11.25;;;11.20;74.20;;;;;;5190097;28;20108;-74
2021/05/29 01:11:24;;;;;;;11.38;10.48;;;11.20;74.30;;;;;;5189930;28;20130;-73
2021/05/29 01:13:59;;;;;;;11.73;10.73;;;11.20;74.60;;;;;;5192682;28;20069;-71
2021/05/29 01:19:12;;;;;;;12.30;11.10;;;11.10;74.50;;;;;;5190711;28;20506;-73
2021/05/29 01:21:43;;;;;;;11.57;10.57;;;11.10;74.70;;;;;;5173785;28;20065;-72
2021/05/29 01:24:18;;;;;;;11.20;10.30;;;11.10;74.80;;;;;;5191026;28;20515;-71
2021/05/29 01:26:51;;;;;;;11.57;10.55;;;11.10;74.70;;;;;;5189870;28;20129;-71
2021/05/29 01:29:23;;;;;;;11.52;10.60;;;11.10;74.50;;;;;;5189727;28;20516;-73
2021/05/29 01:32:02;;;;;;;12.40;11.35;;;11.10;73.90;;;;;;5203697;28;20049;-72
2021/05/29 01:34:36;;;;;;;12.55;11.48;;;11.20;74.20;;;;;;5179347;28;20049;-71
2021/05/29 01:37:08;;;;;;;13.05;11.82;;;11.20;73.50;;;;;;5174868;28;20540;-73
2021/05/29 01:39:40;;;;;;;13.00;11.80;;;11.20;74.10;;;;;;5190193;28;20586;-73
2021/05/29 01:42:12;;;;;;;14.45;13.02;;;11.20;73.80;;;;;;5189269;28;20057;-71
2021/05/29 01:44:44;;;;;;;13.32;12.05;;;11.20;73.60;;;;;;5190462;28;20136;-72
2021/05/29 01:47:17;;;;;;;13.93;12.57;;;11.20;73.60;;;;;;5184191;28;20041;-72
2021/05/29 01:49:48;;;;;;;13.45;12.18;;;11.20;73.40;;;;;;5191481;28;20092;-70
2021/05/29 01:52:21;;;;;;;12.77;11.68;;;11.20;73.50;;;;;;5188402;28;20045;-70
2021/05/29 01:54:52;;;;;;;11.45;10.55;;;11.20;73.70;;;;;;5189282;28;20095;-70
2021/05/29 01:57:24;;;;;;;11.40;10.40;;;11.10;74.10;;;;;;5185685;28;20077;-70
2021/05/29 01:59:56;;;;;;;11.15;10.15;;;11.10;74.40;;;;;;5192571;28;20103;-71
2021/05/29 02:02:28;;;;;;;11.30;10.35;;;11.00;74.50;;;;;;5190322;28;20168;-70
2021/05/29 02:05:12;;;;;;;11.40;10.27;;;11.00;74.80;;;;;;5172532;28;21611;-72
2021/05/29 02:07:44;;;;;;;10.75;9.85;;;10.80;74.90;;;;;;5189326;28;20267;-73
2021/05/29 02:10:23;;;;;;;12.07;10.90;;;10.80;75.30;;;;;;5191952;28;20042;-72
2021/05/29 02:12:57;;;;;;;11.23;10.23;;;10.80;74.90;;;;;;5185605;28;20077;-74
2021/05/29 02:15:34;;;;;;;10.90;10.00;;;10.80;74.50;;;;;;5190753;28;20050;-72
2021/05/29 02:18:08;;;;;;;11.10;10.15;;;10.80;74.80;;;;;;5173426;28;20073;-73
2021/05/29 02:20:50;;;;;;;11.35;10.25;;;10.80;75.60;;;;;;5189271;28;20042;-71
2021/05/29 02:23:37;;;;;;;11.68;10.48;;;10.70;75.40;;;;;;5188126;28;20530;-74
2021/05/29 02:26:12;;;;;;;10.88;9.95;;;10.70;75.30;;;;;;5188823;28;20045;-73
2021/05/29 02:28:49;;;;;;;11.48;10.48;;;10.70;75.10;;;;;;5190695;28;20556;-73
2021/05/29 02:31:22;;;;;;;10.88;9.98;;;10.70;74.90;;;;;;5187807;28;20139;-74
2021/05/29 02:33:54;;;;;;;11.20;10.10;;;10.70;75.70;;;;;;5189934;28;20046;-73
2021/05/29 02:36:26;;;;;;;11.38;10.38;;;10.60;75.70;;;;;;5189118;28;20057;-72
2021/05/29 02:38:58;;;;;;;11.82;10.63;;;10.60;75.80;;;;;;5190674;28;20513;-72
2021/05/29 02:41:30;;;;;;;11.13;10.02;;;10.50;76.30;;;;;;5187838;28;20061;-73
2021/05/29 02:44:02;;;;;;;10.80;9.90;;;10.50;76.00;;;;;;5175630;28;20832;-72
2021/05/29 02:46:34;;;;;;;10.90;9.90;;;10.50;75.90;;;;;;5191028;28;20056;-72
2021/05/29 02:49:06;;;;;;;11.02;9.93;;;10.50;76.10;;;;;;5193145;28;20132;-71
2021/05/29 02:51:38;;;;;;;10.82;9.50;;;10.50;76.00;;;;;;5171897;28;20041;-71
2021/05/29 02:54:10;;;;;;;11.23;10.32;;;10.50;75.00;;;;;;5189991;28;20073;-71
2021/05/29 02:56:42;;;;;;;11.20;10.15;;;10.60;75.00;;;;;;5188731;28;20045;-71
2021/05/29 02:59:14;;;;;;;10.75;9.82;;;10.60;75.10;;;;;;5180417;28;20131;-71
2021/05/29 03:01:46;;;;;;;10.45;9.45;;;10.50;76.30;;;;;;5186936;28;20038;-72
2021/05/29 03:04:18;;;;;;;10.55;9.60;;;10.40;76.20;;;;;;5190325;28;20049;-71
2021/05/29 03:06:50;;;;;;;10.73;9.82;;;10.40;76.10;;;;;;5189465;28;20516;-72
2021/05/29 03:09:22;;;;;;;10.93;9.82;;;10.40;75.00;;;;;;5191188;28;20586;-72
2021/05/29 03:11:54;;;;;;;10.75;9.85;;;10.50;75.50;;;;;;5189929;28;20042;-71
2021/05/29 03:14:26;;;;;;;11.23;10.23;;;10.50;76.20;;;;;;5190291;28;20054;-72
2021/05/29 03:16:58;;;;;;;11.02;10.02;;;10.40;75.10;;;;;;5178287;28;20452;-71
2021/05/29 03:19:30;;;;;;;11.20;10.10;;;10.40;75.20;;;;;;5189796;28;20063;-71
2021/05/29 03:22:02;;;;;;;10.43;9.35;;;10.40;75.60;;;;;;5186659;28;20053;-71
2021/05/29 03:24:34;;;;;;;11.02;10.02;;;10.40;75.90;;;;;;5177229;28;20053;-71
2021/05/29 03:27:06;;;;;;;10.40;9.50;;;10.30;76.50;;;;;;5187626;28;20578;-72
2021/05/29 03:29:38;;;;;;;10.85;9.95;;;10.30;75.60;;;;;;5193917;28;20041;-72
2021/05/29 03:32:10;;;;;;;10.98;9.98;;;10.30;75.70;;;;;;5193108;28;20053;-73
2021/05/29 03:34:42;;;;;;;11.30;10.40;;;10.30;76.20;;;;;;5194071;28;20038;-73
2021/05/29 03:37:14;;;;;;;10.98;9.98;;;10.20;76.20;;;;;;5193937;28;20132;-71
2021/05/29 03:39:46;;;;;;;10.75;9.75;;;10.20;76.50;;;;;;5191009;28;20132;-72
2021/05/29 03:42:19;;;;;;;10.18;9.30;;;10.20;76.20;;;;;;5193750;28;20104;-71
2021/05/29 03:44:51;;;;;;;10.60;9.60;;;10.30;75.70;;;;;;5196166;28;20132;-71
2021/05/29 03:47:23;;;;;;;10.43;9.30;;;10.30;76.40;;;;;;5191143;28;20074;-71
2021/05/29 03:49:55;;;;;;;10.98;10.07;;;10.30;76.50;;;;;;5164003;28;20107;-71
2021/05/29 03:52:27;;;;;;;10.25;9.38;;;10.10;78.50;;;;;;5191153;28;20151;-71
2021/05/29 03:54:59;;;;;;;10.65;9.75;;;10.10;77.00;;;;;;5182971;28;20053;-71
2021/05/29 03:57:30;;;;;;;10.57;9.65;;;10.20;76.10;;;;;;5193508;28;20095;-71
2021/05/29 04:00:06;;;;;;;10.88;9.95;;;10.30;75.90;;;;;;5192944;28;20123;-70
2021/05/29 04:02:44;;;;;;;10.82;9.82;;;10.30;76.80;;;;;;5193157;28;20050;-72
2021/05/29 04:05:19;;;;;;;10.90;10.00;;;10.40;76.90;;;;;;5191849;28;20061;-73
2021/05/29 04:07:52;;;;;;;11.07;10.07;;;10.40;77.10;;;;;;5192451;28;20524;-71
2021/05/29 04:10:30;;;;;;;11.68;10.40;;;10.40;76.30;;;;;;5176554;28;20053;-71
2021/05/29 04:13:03;;;;;;;11.25;10.18;;;10.40;77.10;;;;;;5192836;28;20112;-71
2021/05/29 04:15:35;;;;;;;11.93;10.77;;;10.50;76.60;;;;;;5193146;28;20993;-71
2021/05/29 04:18:07;;;;;;;12.27;11.18;;;10.50;76.10;;;;;;5192568;28;20625;-71
2021/05/29 04:20:39;;;;;;;13.85;12.65;;;10.50;76.90;;;;;;5160253;28;20046;-71
2021/05/29 04:23:11;;;;;;;13.38;12.07;;;10.50;77.10;;;;;;5193065;28;20078;-72
2021/05/29 04:25:43;;;;;;;14.05;12.77;;;10.50;77.10;;;;;;5189979;28;20057;-71
2021/05/29 04:28:15;;;;;;;13.50;12.30;;;10.60;77.30;;;;;;5192793;28;20045;-72
2021/05/29 04:30:47;;;;;;;15.95;12.85;;;10.60;77.10;;;;;;5175435;28;20087;-71
2021/05/29 04:33:19;;;;;;;14.60;13.15;;;10.60;77.00;;;;;;5172559;28;20049;-71
2021/05/29 04:35:51;;;;;;;14.43;12.90;;;10.60;76.60;;;;;;5194267;28;20046;-74
2021/05/29 04:38:24;;;;;;;15.00;13.70;;;10.70;76.60;;;;;;5192784;28;20081;-73
2021/05/29 04:40:56;;;;;;;15.30;13.73;;;10.70;76.50;;;;;;5190845;28;20586;-72
2021/05/29 04:43:28;;;;;;;14.93;13.43;;;10.70;76.10;;;;;;5193572;28;20077;-72
2021/05/29 04:46:00;;;;;;;16.25;14.60;;;10.80;76.40;;;;;;5195437;28;20044;-71
2021/05/29 04:48:31;;;;;;;14.73;13.40;;;10.70;76.60;;;;;;5194896;28;20152;-72
2021/05/29 04:51:14;;;;;;;14.35;13.00;;;10.80;76.60;;;;;;5191306;28;20662;-72
2021/05/29 04:53:48;;;;;;;14.55;13.15;;;10.80;76.60;;;;;;5176057;28;20718;-72
2021/05/29 04:56:20;;;;;;;13.48;12.15;;;10.90;76.60;;;;;;5192412;28;20058;-72
2021/05/29 04:58:52;;;;;;;14.65;13.23;;;10.90;76.20;;;;;;5187412;28;20077;-72
2021/05/29 05:01:29;;;;;;;14.55;13.13;;;11.00;76.10;;;;;;5175668;28;20129;-73
2021/05/29 05:04:02;;;;;;;15.30;13.80;;;11.00;76.40;;;;;;5191033;28;20046;-72
2021/05/29 05:06:34;;;;;;;15.23;13.80;;;11.10;76.00;;;;;;5178820;28;20130;-71
2021/05/29 05:09:06;;;;;;;15.00;13.45;;;11.10;76.40;;;;;;5190566;28;20061;-72
2021/05/29 05:11:38;;;;;;;15.48;14.00;;;11.20;75.70;;;;;;5190999;28;20172;-72
2021/05/29 05:14:10;;;;;;;15.07;13.65;;;11.20;76.10;;;;;;5175145;28;20884;-71
2021/05/29 05:16:42;;;;;;;14.93;13.63;;;11.20;76.00;;;;;;5189139;28;20104;-72
2021/05/29 05:19:14;;;;;;;14.50;13.10;;;11.30;74.80;;;;;;5190802;28;20045;-71
2021/05/29 05:21:46;;;;;;;15.70;14.05;;;11.20;75.30;;;;;;5188459;28;20928;-73
2021/05/29 05:24:18;;;;;;;15.05;13.60;;;11.20;74.70;;;;;;5179650;28;20049;-73
2021/05/29 05:26:50;;;;;;;15.80;14.27;;;11.20;74.90;;;;;;5190021;28;20046;-74
2021/05/29 05:29:22;;;;;;;15.30;13.88;;;11.20;74.90;;;;;;5189109;28;20100;-73
2021/05/29 05:31:54;;;;;;;14.70;13.30;;;11.20;75.30;;;;;;5187688;28;20092;-72
2021/05/29 05:34:26;;;;;;;16.15;14.65;;;11.30;75.20;;;;;;5187368;28;20876;-71
2021/05/29 05:36:58;;;;;;;16.10;14.40;;;11.40;75.20;;;;;;5189159;28;20061;-71
2021/05/29 05:39:30;;;;;;;15.43;13.93;;;11.40;75.00;;;;;;5189450;28;20069;-71
2021/05/29 05:42:03;;;;;;;16.63;15.05;;;11.50;75.20;;;;;;5186769;28;20065;-72
2021/05/29 05:44:35;;;;;;;16.40;14.90;;;11.60;75.30;;;;;;5172852;28;20124;-73
2021/05/29 05:47:08;;;;;;;16.77;15.18;;;11.60;74.90;;;;;;5187157;28;20123;-71
2021/05/29 05:49:40;;;;;;;17.33;15.65;;;11.60;75.30;;;;;;5187336;28;20042;-73
2021/05/29 05:52:12;;;;;;;15.75;14.15;;;11.60;74.10;;;;;;5187774;28;20140;-72
2021/05/29 05:54:44;;;;;;;16.77;15.20;;;11.70;74.40;;;;;;5189206;28;20080;-72
2021/05/29 05:57:16;;;;;;;16.90;15.38;;;11.70;74.90;;;;;;5189438;28;20049;-73
2021/05/29 05:59:48;;;;;;;15.95;14.45;;;11.80;74.80;;;;;;5187985;28;20045;-72
2021/05/29 06:02:20;;;;;;;15.50;14.02;;;11.80;74.60;;;;;;5186627;28;20065;-72
2021/05/29 06:04:53;;;;;;;16.27;14.80;;;11.90;73.80;;;;;;5189396;28;20034;-73
2021/05/29 06:07:25;;;;;;;19.10;14.65;;;11.90;74.40;;;;;;5187667;28;20519;-72
2021/05/29 06:09:57;;;;;;;16.90;15.20;;;11.90;73.90;;;;;;5188462;28;20049;-72
2021/05/29 06:12:30;;;;;;;16.70;15.13;;;11.80;74.40;;;;;;5187414;28;20137;-72
2021/05/29 06:18:01;;;;;;;16.80;15.25;;;12.00;72.80;;;;;;5189125;28;20123;-73
2021/05/29 06:20:36;;;;;;;17.00;15.40;;;12.10;74.40;;;;;;5188529;28;20045;-72
2021/05/29 06:23:10;;;;;;;16.35;14.85;;;12.20;72.50;;;;;;5169385;28;20053;-73
2021/05/29 06:25:42;;;;;;;16.65;15.20;;;12.20;73.80;;;;;;5168660;28;20180;-72
2021/05/29 06:28:14;;;;;;;16.65;15.20;;;12.30;73.60;;;;;;5165875;28;20041;-72
2021/05/29 06:30:46;;;;;;;15.73;14.32;;;12.30;72.90;;;;;;5183799;28;20051;-71
2021/05/29 06:33:18;;;;;;;16.13;14.63;;;12.30;72.50;;;;;;5185228;28;20120;-71
2021/05/29 06:35:50;;;;;;;16.35;14.85;;;12.30;72.00;;;;;;5169969;28;20082;-71
2021/05/29 06:38:26;;;;;;;16.15;14.55;;;12.30;72.90;;;;;;5177443;28;20653;-72
2021/05/29 06:40:58;;;;;;;15.77;14.18;;;12.40;72.90;;;;;;5187087;28;20317;-71
2021/05/29 06:43:32;;;;;;;15.98;14.48;;;12.30;71.30;;;;;;5190233;28;20040;-69
2021/05/29 06:46:04;;;;;;;17.02;15.18;;;12.30;72.10;;;;;;5179541;28;20096;-69
2021/05/29 06:48:36;;;;;;;16.73;15.00;;;12.30;72.30;;;;;;5190152;28;20903;-68
2021/05/29 06:51:10;;;;;;;15.40;14.10;;;12.40;73.30;;;;;;5187423;28;20072;-68
2021/05/29 06:53:53;;;;;;;16.13;14.52;;;12.40;72.60;;;;;;5185256;28;20479;-69
2021/05/29 06:59:15;;;;;;;;;;;12.40;71.50;;;;;;5189107;28;20127;-70
2021/05/29 07:01:47;;;;;;;15.32;13.93;;;12.40;72.70;;;;;;5185841;28;20376;-69
2021/05/29 07:04:19;;;;;;;16.08;14.00;;;12.50;73.20;;;;;;5189902;28;20050;-68
2021/05/29 07:06:51;;;;;;;16.25;14.70;;;12.50;73.60;;;;;;5187544;28;20077;-71
2021/05/29 07:09:23;;;;;;;15.95;14.43;;;12.60;71.70;;;;;;5187555;28;20077;-68
2021/05/29 07:11:55;;;;;;;15.02;13.63;;;12.60;71.40;;;;;;5188760;28;20137;-69
2021/05/29 07:14:27;;;;;;;14.98;13.77;;;12.70;72.20;;;;;;5190301;28;20152;-68
2021/05/29 07:17:01;;;;;;;15.05;13.65;;;12.70;71.30;;;;;;5192023;28;20444;-70
2021/05/29 07:19:33;;;;;;;15.05;13.60;;;12.70;71.30;;;;;;5173086;28;20069;-69
2021/05/29 07:22:05;;;;;;;14.90;13.50;;;12.70;71.40;;;;;;5177781;28;20140;-68
2021/05/29 07:24:37;;;;;;;15.73;14.32;;;12.70;72.40;;;;;;5189450;28;20068;-69
2021/05/29 07:27:09;;;;;;;14.52;13.23;;;12.70;71.30;;;;;;5189670;28;20080;-68
2021/05/29 07:29:41;;;;;;;14.65;13.25;;;12.60;70.50;;;;;;5173693;28;20053;-68
2021/05/29 07:32:13;;;;;;;13.88;12.57;;;12.60;71.20;;;;;;5187619;28;20049;-68
2021/05/29 07:34:45;;;;;;;13.93;12.73;;;12.60;69.30;;;;;;5191897;28;20069;-68
2021/05/29 07:37:17;;;;;;;13.82;12.55;;;12.60;72.30;;;;;;5187543;28;20147;-68
2021/05/29 07:39:49;;;;;;;13.13;12.02;;;12.70;71.60;;;;;;5186885;28;20662;-69
2021/05/29 07:42:21;;;;;;;14.02;12.80;;;12.80;70.60;;;;;;5183778;28;20104;-70
2021/05/29 07:44:53;;;;;;;13.77;12.48;;;12.90;70.50;;;;;;5178968;28;20054;-69
2021/05/29 07:47:25;;;;;;;13.07;11.98;;;12.90;70.00;;;;;;5169438;28;20115;-68
2021/05/29 07:49:58;;;;;;;13.38;12.27;;;12.90;67.60;;;;;;5192603;28;20459;-69
2021/05/29 07:52:30;;;;;;;13.77;12.57;;;12.90;70.00;;;;;;5186089;28;20137;-68
2021/05/29 07:55:04;;;;;;;13.43;12.20;;;12.90;68.80;;;;;;5189002;28;20136;-69
2021/05/29 07:57:35;;;;;;;12.65;11.55;;;12.90;68.80;;;;;;5191362;28;20091;-68
2021/05/29 08:00:10;;;;;;;13.15;11.95;;;12.90;67.00;;;;;;5187045;28;20050;-68
2021/05/29 08:02:42;;;;;;;12.55;11.45;;;13.00;66.70;;;;;;5186228;28;20109;-68
2021/05/29 08:05:19;;;;;;;12.90;11.80;;;13.00;67.60;;;;;;5186988;28;20439;-68
2021/05/29 08:07:53;;;;;;;12.90;11.80;;;13.00;68.00;;;;;;5171938;28;20768;-69
2021/05/29 08:10:25;;;;;;;13.93;12.48;;;13.10;69.40;;;;;;5176728;28;20034;-68
2021/05/29 08:12:57;;;;;;;12.88;11.60;;;13.20;68.10;;;;;;5186481;28;20044;-68
2021/05/29 08:15:29;;;;;;;12.50;11.40;;;13.30;67.70;;;;;;5188707;28;20049;-70
2021/05/29 08:18:00;;;;;;;12.60;11.50;;;13.40;66.90;;;;;;5175668;28;20100;-67
2021/05/29 08:20:32;;;;;;;12.32;11.32;;;13.40;67.60;;;;;;5193826;28;20061;-68
2021/05/29 08:23:05;;;;;;;16.80;12.05;;;13.50;67.50;;;;;;5174215;28;20037;-70
2021/05/29 08:25:37;;;;;;;13.40;12.18;;;13.60;68.00;;;;;;5193671;28;20052;-70
2021/05/29 08:28:09;;;;;;;12.35;11.15;;;13.70;68.60;;;;;;5193504;28;20050;-68
2021/05/29 08:30:42;;;;;;;13.30;12.20;;;13.80;67.00;;;;;;5187397;28;20099;-67
2021/05/29 08:33:14;;;;;;;13.52;12.32;;;13.80;67.40;;;;;;5194565;28;20056;-69
2021/05/29 08:35:46;;;;;;;12.93;11.82;;;13.90;65.90;;;;;;5191131;28;20050;-68
2021/05/29 08:38:18;;;;;;;12.50;11.35;;;13.90;66.20;;;;;;5189860;28;20633;-71
2021/05/29 08:40:50;;;;;;;12.40;11.32;;;13.90;66.70;;;;;;5189848;28;20045;-70
2021/05/29 08:43:22;;;;;;;13.30;12.13;;;13.90;67.30;;;;;;5192982;28;20096;-68
2021/05/29 08:45:54;;;;;;;12.95;11.85;;;13.90;66.40;;;;;;5190195;28;20041;-69
2021/05/29 08:48:26;;;;;;;12.38;11.30;;;14.00;66.30;;;;;;5175579;28;20124;-70
2021/05/29 08:51:14;;;;;;;12.40;11.40;;;14.00;64.40;;;;;;5187648;28;20108;-69
2021/05/29 08:53:52;;;;;;;12.40;11.40;;;14.00;65.60;;;;;;5173565;28;20046;-68
2021/05/29 08:56:27;;;;;;;12.25;11.25;;;14.20;65.90;;;;;;5190676;28;20757;-68
2021/05/29 08:59:00;;;;;;;13.00;11.80;;;14.20;65.40;;;;;;5189716;28;20088;-68
2021/05/29 09:01:32;;;;;;;13.40;12.20;;;14.30;65.50;;;;;;5190011;28;20065;-67
2021/05/29 09:04:07;;;;;;;13.60;12.40;;;14.40;65.40;;;;;;5192955;28;20064;-69
2021/05/29 09:06:44;;;;;;;13.48;12.38;;;14.50;63.00;;;;;;5193307;28;20057;-69
2021/05/29 09:09:18;;;;;;;13.10;12.10;;;14.60;65.10;;;;;;5175428;28;20045;-67
2021/05/29 09:11:50;;;;;;;13.23;12.13;;;14.70;63.70;;;;;;5190874;28;20158;-68
2021/05/29 09:14:29;;;;;;;13.32;12.23;;;14.80;61.40;;;;;;5190879;28;20121;-69
2021/05/29 09:17:11;;;;;;;13.38;12.27;;;14.90;62.10;;;;;;5190925;28;20747;-68
2021/05/29 09:20:02;;;;;;;13.38;12.27;;;15.00;64.50;;;;;;5191240;28;20038;-68
2021/05/29 09:22:52;;;;;;;13.10;12.00;;;15.10;58.90;;;;;;5188547;28;20057;-68
2021/05/29 09:25:26;;;;;;;13.20;12.13;;;15.20;61.60;;;;;;5187468;28;20509;-69
2021/05/29 09:28:03;;;;;;;13.90;12.65;;;15.30;60.30;;;;;;5191354;28;20049;-69
2021/05/29 09:30:44;;;;;;;13.50;12.43;;;15.40;60.00;;;;;;5190298;28;20779;-69
2021/05/29 09:33:26;;;;;;;12.90;11.82;;;15.40;61.80;;;;;;5191827;28;20049;-69
2021/05/29 09:36:05;;;;;;;13.30;12.10;;;15.50;58.10;;;;;;5189591;28;20058;-71
2021/05/29 09:38:50;;;;;;;13.70;12.52;;;15.50;59.00;;;;;;5187708;28;20080;-70
2021/05/29 09:41:32;;;;;;;13.52;12.43;;;15.70;60.80;;;;;;5172751;28;20034;-69
2021/05/29 09:44:06;;;;;;;13.65;12.60;;;15.90;60.40;;;;;;5192863;28;20072;-69
2021/05/29 09:46:54;;;;;;;14.30;13.00;;;16.00;58.10;;;;;;5178753;28;20052;-71
2021/05/29 09:49:45;;;;;;;14.30;12.95;;;16.00;57.30;;;;;;5191177;28;20127;-68
2021/05/29 09:52:30;;;;;;;14.65;13.23;;;16.10;56.90;;;;;;5191514;28;20061;-69
2021/05/29 09:55:05;;;;;;;14.00;12.90;;;16.20;56.20;;;;;;5189121;28;20585;-69
2021/05/29 09:57:58;;;;;;;14.95;13.65;;;16.30;56.40;;;;;;5191027;28;20128;-70
2021/05/29 10:00:41;;;;;;;15.10;13.82;;;16.50;56.30;;;;;;5173586;28;20088;-70
2021/05/29 10:03:14;;;;;;;14.07;12.98;;;16.70;55.90;;;;;;5187851;28;20080;-69
2021/05/29 10:05:49;;;;;;;15.00;13.70;;;16.80;56.90;;;;;;5189411;28;20038;-69
2021/05/29 10:08:21;;;;;;;14.38;13.18;;;16.90;56.20;;;;;;5191517;28;20655;-70
2021/05/29 10:10:53;;;;;;;15.15;13.95;;;16.90;54.20;;;;;;5173851;28;20281;-70
2021/05/29 10:13:27;;;;;;;15.07;13.88;;;16.80;56.30;;;;;;5188331;28;20045;-71
2021/05/29 10:16:01;;;;;;;13.77;12.68;;;16.70;53.10;;;;;;5187933;28;20407;-72
2021/05/29 10:18:35;;;;;;;14.90;13.63;;;16.80;53.40;;;;;;5189538;28;20117;-69
2021/05/29 10:21:08;;;;;;;14.45;13.20;;;16.70;56.70;;;;;;5188254;28;20117;-69
2021/05/29 10:23:44;;;;;;;13.18;12.18;;;16.80;52.80;;;;;;5186396;28;20042;-70
2021/05/29 10:26:17;;;;;;;13.35;12.35;;;16.90;52.50;;;;;;5189462;28;20049;-69
2021/05/29 10:28:49;;;;;;;13.65;12.25;;;17.10;52.70;;;;;;5162422;28;20127;-69
2021/05/29 10:31:23;;;;;;;13.68;12.63;;;17.30;49.30;;;;;;5188089;28;20045;-69
2021/05/29 10:33:55;;;;;;;14.05;12.85;;;17.30;51.10;;;;;;5187896;28;20048;-69
2021/05/29 10:36:56;;;;;;;13.55;12.35;;;17.40;51.40;;;;;;5187831;28;20134;-69
2021/05/29 10:39:36;;;;;;;13.70;12.60;;;17.50;48.40;;;;;;5688778;22;20162;-68
2021/05/29 10:42:09;;;;;;;13.63;12.52;;;17.50;51.10;;;;;;5209802;28;20045;-68
2021/05/29 10:45:14;;;;;;;16.20;14.73;;;17.60;47.90;;;;;;5207963;28;20041;-68
2021/05/29 10:48:12;;;;;;;21.63;19.42;;;17.70;51.10;;;;;;5210718;28;20053;-68
2021/05/29 10:50:55;;;;;;;13.95;12.85;;;17.90;51.40;;;;;;5189058;28;20041;-69
2021/05/29 10:53:44;;;;;;;13.88;12.77;;;18.00;48.10;;;;;;5186273;28;20041;-70
2021/05/29 10:56:19;;;;;;;13.82;12.73;;;18.10;48.40;;;;;;5189276;28;20042;-69
2021/05/29 10:59:11;;;;;;;13.30;12.20;;;18.20;47.40;;;;;;5188897;28;20549;-69
2021/05/29 11:01:47;;;;;;;13.48;12.38;;;18.20;46.70;;;;;;5187479;28;20034;-69
2021/05/29 11:04:20;;;;;;;13.43;12.43;;;18.30;49.00;;;;;;5187605;28;20061;-69
2021/05/29 11:06:57;;;;;;;13.60;12.60;;;18.50;43.40;;;;;;5174513;28;20077;-69
2021/05/29 11:09:29;;;;;;;13.38;12.38;;;18.50;46.00;;;;;;5185040;28;20114;-69
2021/05/29 11:12:03;;;;;;;13.52;12.43;;;18.40;46.80;;;;;;5174446;28;20057;-69
2021/05/29 11:14:56;;;;;;;13.48;12.38;;;18.50;48.50;;;;;;5188698;28;20041;-69
2021/05/29 11:17:30;;;;;;;13.68;12.50;;;18.50;46.10;;;;;;5185315;28;20471;-69
2021/05/29 11:20:17;;;;;;;13.50;12.40;;;18.50;47.00;;;;;;5184390;28;20077;-70
2021/05/29 11:22:50;;;;;;;13.63;12.55;;;18.50;47.10;;;;;;5182241;28;20046;-69
2021/05/29 11:25:23;;;;;;;13.43;12.43;;;18.60;46.70;;;;;;5184705;28;20461;-69
2021/05/29 11:27:55;;;;;;;13.30;12.30;;;18.70;44.40;;;;;;5184603;28;20422;-69
2021/05/29 11:30:32;;;;;;;14.02;12.93;;;18.80;45.10;;;;;;5189759;28;20060;-69
2021/05/29 11:35:47;;;;;;;13.38;12.35;;;18.90;42.90;;;;;;5185297;28;20049;-69
2021/05/29 11:38:23;;;;;;;13.10;12.10;;;18.90;44.60;;;;;;5188421;28;20042;-70
2021/05/29 11:41:00;;;;;;;13.27;12.27;;;18.90;48.00;;;;;;5188279;28;20115;-70
2021/05/29 11:43:50;;;;;;;12.50;11.60;;;19.00;48.30;;;;;;5185329;28;20055;-70
2021/05/29 11:46:27;;;;;;;12.90;11.73;;;19.10;41.40;;;;;;5186172;28;20046;-69
2021/05/29 11:49:04;;;;;;;13.00;12.00;;;19.40;43.40;;;;;;5186804;28;20042;-70
2021/05/29 11:51:42;;;;;;;12.93;11.93;;;19.40;44.30;;;;;;5186935;28;20052;-70
2021/05/29 11:54:20;;;;;;;12.10;11.20;;;19.40;45.80;;;;;;5189709;28;20696;-70
2021/05/29 11:56:52;;;;;;;12.02;11.13;;;19.30;43.80;;;;;;5195066;28;20045;-69
2021/05/29 11:59:24;;;;;;;12.45;11.55;;;19.20;43.00;;;;;;5173622;28;20049;-69
2021/05/29 12:01:56;;;;;;;12.02;11.13;;;19.10;44.20;;;;;;5191928;28;20677;-69
2021/05/29 12:04:29;;;;;;;12.05;11.05;;;18.90;44.70;;;;;;5192604;28;20040;-69
2021/05/29 12:07:03;;;;;;;12.60;11.60;;;18.90;45.20;;;;;;5194804;28;20486;-71
2021/05/29 12:09:42;;;;;;;12.73;11.68;;;18.90;44.10;;;;;;5187110;28;20050;-70
2021/05/29 12:12:16;;;;;;;13.43;12.30;;;19.20;42.00;;;;;;5177303;28;20059;-70
2021/05/29 12:14:59;;;;;;;12.90;11.88;;;19.40;42.10;;;;;;5178651;28;20057;-72
2021/05/29 12:17:34;;;;;;;12.27;11.27;;;19.60;42.80;;;;;;5188572;28;20268;-70
2021/05/29 12:20:07;;;;;;;12.82;11.90;;;19.60;42.30;;;;;;5191709;28;20044;-70
2021/05/29 12:22:39;;;;;;;13.15;11.95;;;19.60;44.30;;;;;;5155064;28;20084;-70
2021/05/29 12:25:12;;;;;;;13.48;12.48;;;19.70;44.20;;;;;;5188680;28;20033;-69
2021/05/29 12:27:50;;;;;;;12.88;11.88;;;19.90;42.90;;;;;;5190772;28;20044;-70
2021/05/29 12:30:24;;;;;;;13.23;12.20;;;19.70;45.80;;;;;;5188383;28;20468;-70
2021/05/29 12:32:57;;;;;;;13.32;12.32;;;19.40;43.90;;;;;;5173013;28;20096;-69
2021/05/29 12:35:39;;;;;;;13.23;12.23;;;19.40;43.90;;;;;;5173003;28;20124;-69
2021/05/29 12:38:19;;;;;;;13.38;12.15;;;19.30;46.40;;;;;;5173852;28;20069;-69
2021/05/29 12:41:11;;;;;;;13.05;12.05;;;19.20;45.90;;;;;;5191210;28;20448;-69
2021/05/29 12:44:08;;;;;;;13.10;12.18;;;19.30;46.50;;;;;;5192536;28;20030;-69
2021/05/29 12:46:40;;;;;;;12.63;11.73;;;19.20;39.30;;;;;;5188433;28;20045;-69
2021/05/29 12:49:16;;;;;;;13.45;12.45;;;19.00;43.20;;;;;;5192658;28;20034;-70
2021/05/29 12:51:50;;;;;;;13.32;12.15;;;19.00;45.90;;;;;;5170238;28;20065;-70
2021/05/29 12:54:22;;;;;;;13.23;11.95;;;19.30;45.30;;;;;;5191738;28;20847;-70
2021/05/29 12:56:59;;;;;;;12.27;11.38;;;19.50;45.40;;;;;;5191675;28;20136;-70
2021/05/29 12:59:32;;;;;;;12.55;11.50;;;19.60;47.40;;;;;;5188712;28;20128;-71
2021/05/29 13:07:39;;;;;;;12.55;11.55;;;19.60;45.10;;;;;;5187483;28;20053;-70
2021/05/29 13:13:06;;;;;;;12.23;11.23;;;19.30;39.00;;;;;;5176898;28;20115;-70
2021/05/29 13:15:38;;;;;;;11.63;10.73;;;19.30;42.40;;;;;;5192259;28;20045;-70
2021/05/29 13:18:15;;;;;;;12.10;11.20;;;19.10;43.70;;;;;;5190704;28;20046;-68
2021/05/29 13:21:01;;;;;;;12.50;11.50;;;19.10;41.70;;;;;;5188663;28;20533;-70
2021/05/29 13:23:43;;;;;;;11.80;10.90;;;19.00;43.40;;;;;;5186558;28;20413;-71